Time;durP1;ratioP1;P1;durP2;ratioP2;P2;SDS_P1;SDS_P2;PMS_P1;PMS_P2;Temp;Humidity;BMP_temperature;BMP_pressure;BME280_temperature;BME280_humidity;BME280_pressure;Samples;Min_cycle;Max_cycle;Signal;HPM_P1;HPM_P2
2023/07/03 00:00:27;;;;;;;14.63;8.13;;;19.20;46.80;;;20.58;37.94;97346.31;5032752;28;20053;-51
2023/07/03 00:02:55;;;;;;;14.30;8.93;;;19.20;46.70;;;20.57;37.84;97357.34;5033234;28;20045;-46
2023/07/03 00:05:23;;;;;;;11.88;7.75;;;19.20;46.80;;;20.55;38.10;97354.91;5031182;28;20038;-48
2023/07/03 00:07:51;;;;;;;13.75;8.65;;;19.20;46.80;;;20.56;38.19;97344.91;5033032;28;20038;-49
2023/07/03 00:10:21;;;;;;;18.05;9.20;;;19.20;47.10;;;20.55;38.12;97346.78;5032728;28;20068;-49
2023/07/03 00:12:49;;;;;;;15.30;8.68;;;19.10;47.10;;;20.56;38.21;97350.31;5033103;28;20512;-48
2023/07/03 00:15:17;;;;;;;19.80;9.98;;;19.10;47.10;;;20.54;38.33;97344.31;5023424;28;20057;-49
2023/07/03 00:17:44;;;;;;;20.83;9.00;;;19.10;47.20;;;20.51;38.23;97339.34;5032759;28;20475;-48
2023/07/03 00:20:13;;;;;;;15.63;9.35;;;19.00;47.10;;;20.51;38.24;97345.59;5032707;28;20045;-52
2023/07/03 00:22:43;;;;;;;13.93;8.18;;;19.00;47.00;;;20.50;38.23;97333.13;5032782;28;20052;-52
2023/07/03 00:25:11;;;;;;;13.95;8.57;;;19.00;47.10;;;20.48;38.03;97331.72;5032605;28;20056;-49
2023/07/03 00:27:38;;;;;;;17.70;9.98;;;19.00;47.10;;;20.46;38.37;97334.66;5032432;28;20037;-49
2023/07/03 00:30:07;;;;;;;16.23;8.40;;;19.00;47.30;;;20.45;38.18;97338.41;5031127;28;20046;-49
2023/07/03 00:32:35;;;;;;;17.42;9.05;;;19.00;47.30;;;20.42;38.07;97341.59;5032702;28;20041;-47
2023/07/03 00:35:03;;;;;;;16.88;8.38;;;18.90;47.30;;;20.37;38.41;97339.56;5031377;28;20049;-51
2023/07/03 00:37:31;;;;;;;14.52;8.23;;;18.90;47.20;;;20.37;37.97;97339.56;5032303;28;20552;-48
2023/07/03 00:39:59;;;;;;;18.38;9.15;;;18.90;47.20;;;20.36;38.25;97346.03;5032438;28;20052;-51
2023/07/03 00:42:28;;;;;;;13.05;9.57;;;18.90;47.20;;;20.37;38.29;97341.44;5032250;28;20041;-52
2023/07/03 00:44:56;;;;;;;15.23;8.35;;;18.90;47.20;;;20.35;38.59;97338.97;5022781;28;20044;-49
2023/07/03 00:47:25;;;;;;;15.63;8.50;;;19.00;47.00;;;20.32;38.44;97344.03;5030879;28;20048;-51
2023/07/03 00:49:52;;;;;;;19.42;9.48;;;18.90;47.20;;;20.32;38.53;97341.34;5030830;28;20049;-48
2023/07/03 00:52:21;;;;;;;16.33;7.93;;;18.90;47.20;;;20.32;38.56;97341.34;5031090;28;20041;-50
2023/07/03 00:54:49;;;;;;;15.70;9.73;;;18.90;47.30;;;20.32;38.61;97344.03;5030888;28;20041;-51
2023/07/03 00:57:17;;;;;;;16.00;9.18;;;18.90;47.20;;;20.30;38.52;97341.56;5032109;28;20045;-51
2023/07/03 00:59:45;;;;;;;16.23;8.88;;;18.90;48.10;;;20.29;38.76;97339.06;5032374;28;20049;-47
2023/07/03 01:02:37;;;;;;;17.83;9.25;;;18.90;47.40;;;20.30;38.53;97332.59;5028030;28;20417;-48
2023/07/03 01:05:33;;;;;;;13.60;8.65;;;18.90;47.20;;;20.29;38.48;97330.97;5011170;28;20053;-49
2023/07/03 01:08:01;;;;;;;15.57;8.77;;;19.00;47.30;;;20.30;38.41;97338.00;5027032;28;20515;-52
2023/07/03 01:10:31;;;;;;;15.30;7.95;;;19.00;47.30;;;20.29;38.69;97342.59;5030140;28;20045;-52
2023/07/03 01:13:05;;;;;;;14.27;8.45;;;19.00;47.50;;;20.29;38.88;97334.50;5030832;28;20049;-47
2023/07/03 01:15:38;;;;;;;16.52;9.20;;;19.00;47.40;;;20.32;38.58;97331.34;5030289;28;20050;-49
2023/07/03 01:18:07;;;;;;;14.43;8.27;;;19.00;47.50;;;20.36;38.75;97339.81;5029996;28;20053;-49
2023/07/03 01:21:09;;;;;;;12.77;9.00;;;19.00;47.50;;;20.41;39.08;97345.31;5030296;28;20056;-51
2023/07/03 01:24:00;;;;;;;17.20;10.13;;;19.10;47.90;;;20.45;38.95;97343.81;5030437;28;20061;-50
2023/07/03 01:26:28;;;;;;;16.98;9.98;;;19.10;47.90;;;20.44;38.80;97340.28;5022492;28;20056;-47
2023/07/03 01:29:00;;;;;;;15.23;8.82;;;19.10;47.60;;;20.44;38.87;97344.88;5031496;28;20416;-52
2023/07/03 01:31:30;;;;;;;17.98;10.32;;;19.10;47.70;;;20.48;38.70;97337.13;5030518;28;20045;-51
2023/07/03 01:34:00;;;;;;;17.40;8.85;;;19.10;47.70;;;20.50;38.86;97340.44;5030315;28;20037;-51
2023/07/03 01:36:30;;;;;;;15.43;9.30;;;19.10;47.60;;;20.52;38.80;97335.59;5030203;28;20424;-48
2023/07/03 01:39:01;;;;;;;15.60;9.10;;;19.10;47.50;;;20.52;38.59;97336.44;5030172;28;20049;-49
2023/07/03 01:41:30;;;;;;;18.67;9.75;;;19.20;47.50;;;20.51;38.87;97334.78;5013210;28;20056;-51
2023/07/03 01:43:58;;;;;;;18.58;9.43;;;19.10;47.60;;;20.53;38.80;97331.84;5013574;28;20497;-46
2023/07/03 01:46:25;;;;;;;18.27;9.15;;;19.20;47.40;;;20.53;39.10;97332.69;5031419;28;20041;-48
2023/07/03 01:48:53;;;;;;;16.30;9.63;;;19.20;47.50;;;20.55;38.72;97340.53;5030017;28;20527;-50
2023/07/03 01:51:41;;;;;;;18.00;9.02;;;19.20;47.50;;;20.54;38.76;97326.19;5030859;28;20053;-45
2023/07/03 01:54:25;;;;;;;16.63;9.25;;;19.20;47.70;;;20.55;38.77;97330.56;5029614;28;20056;-50
2023/07/03 01:56:57;;;;;;;16.20;10.02;;;19.20;48.50;;;20.55;38.87;97327.00;5008097;28;20056;-48
2023/07/03 01:59:29;;;;;;;17.70;9.50;;;19.20;47.70;;;20.50;38.95;97329.63;5029197;28;20054;-50
2023/07/03 02:02:16;;;;;;;16.98;8.45;;;19.10;47.70;;;20.51;38.84;97323.13;5030204;28;20050;-48
2023/07/03 02:05:12;;;;;;;17.20;9.23;;;19.10;47.70;;;20.50;38.79;97333.13;5029681;28;20045;-50
2023/07/03 02:07:42;;;;;;;16.42;9.32;;;19.20;47.50;;;20.51;38.85;97329.38;5029742;28;20050;-52
2023/07/03 02:10:10;;;;;;;20.35;9.85;;;19.10;47.50;;;20.50;38.99;97326.91;5013507;28;20057;-47
2023/07/03 02:12:41;;;;;;;17.55;10.23;;;19.20;47.60;;;20.50;39.11;97330.44;5030292;28;20413;-50
2023/07/03 02:15:10;;;;;;;21.38;10.07;;;19.10;47.60;;;20.47;39.06;97333.59;5031523;28;20061;-49
2023/07/03 02:17:38;;;;;;;18.90;8.95;;;19.10;47.60;;;20.49;39.14;97328.78;5038221;28;20060;-50
2023/07/03 02:20:13;;;;;;;17.58;9.18;;;19.20;47.80;;;20.51;38.92;97326.69;5030281;28;20048;-49
2023/07/03 02:22:41;;;;;;;13.48;8.52;;;19.10;47.90;;;20.50;39.13;97319.63;5029490;28;20409;-47
2023/07/03 02:25:10;;;;;;;15.27;9.18;;;19.10;47.90;;;20.48;38.92;97327.13;5029593;28;20054;-50
2023/07/03 02:27:42;;;;;;;13.25;8.20;;;19.10;48.30;;;20.48;39.08;97331.72;5032290;28;20515;-49
2023/07/03 02:30:12;;;;;;;15.07;8.10;;;19.00;48.30;;;20.49;39.24;97334.19;5033950;28;20050;-52
2023/07/03 02:32:41;;;;;;;16.92;9.40;;;19.00;48.10;;;20.48;38.92;97332.53;5034825;28;20045;-47
2023/07/03 02:35:10;;;;;;;14.95;8.90;;;19.10;47.90;;;20.44;39.15;97331.38;5034622;28;20069;-52
2023/07/03 02:37:38;;;;;;;15.25;9.05;;;19.00;48.10;;;20.43;39.36;97330.53;5034286;28;20053;-50
2023/07/03 02:40:10;;;;;;;14.93;8.38;;;19.10;48.20;;;20.43;39.16;97330.53;5034441;28;20052;-47
2023/07/03 02:42:37;;;;;;;16.48;9.82;;;19.10;48.20;;;20.45;39.48;97331.13;5034638;28;20041;-49
2023/07/03 02:45:06;;;;;;;13.63;8.77;;;19.10;48.30;;;20.47;39.27;97328.19;5034398;28;20037;-48
2023/07/03 02:47:36;;;;;;;16.98;9.63;;;19.10;48.00;;;20.46;39.12;97319.25;5032977;28;20060;-47
2023/07/03 02:50:07;;;;;;;16.08;8.80;;;19.10;48.10;;;20.46;39.07;97324.66;5033383;28;20041;-51
2023/07/03 02:52:37;;;;;;;15.85;9.32;;;19.10;48.10;;;20.47;39.42;97322.75;5033055;28;20401;-48
2023/07/03 02:55:08;;;;;;;16.92;8.95;;;19.10;48.20;;;20.46;39.00;97321.13;5033059;28;20041;-50
2023/07/03 02:57:35;;;;;;;13.90;9.25;;;19.10;48.20;;;20.45;39.27;97314.91;5033314;28;20046;-48
2023/07/03 03:00:06;;;;;;;12.20;7.93;;;19.10;48.30;;;20.47;39.34;97311.94;5033342;28;20048;-50
2023/07/03 03:02:35;;;;;;;14.70;8.93;;;19.10;48.30;;;20.46;39.20;97307.63;5032953;28;20426;-46
2023/07/03 03:05:03;;;;;;;15.27;9.32;;;19.10;48.30;;;20.45;39.38;97312.22;5032361;28;20049;-45
2023/07/03 03:07:30;;;;;;;15.23;9.05;;;19.10;48.50;;;20.46;39.62;97313.03;5032641;28;20053;-49
2023/07/03 03:09:58;;;;;;;16.77;7.60;;;19.10;48.40;;;20.44;39.09;97317.84;5032657;28;20052;-49
2023/07/03 03:12:26;;;;;;;17.58;8.57;;;19.10;48.40;;;20.45;39.35;97316.78;5033120;28;20045;-52
2023/07/03 03:14:53;;;;;;;15.93;8.50;;;19.10;48.50;;;20.42;39.64;97306.44;5032675;28;20049;-53
2023/07/03 03:17:21;;;;;;;15.82;9.30;;;19.00;48.60;;;20.42;39.66;97314.56;5033359;28;20473;-47
2023/07/03 03:19:49;;;;;;;14.35;8.32;;;19.00;48.60;;;20.42;39.68;97311.84;5032336;28;20048;-51
2023/07/03 03:22:17;;;;;;;15.27;8.85;;;19.00;48.70;;;20.39;39.66;97304.19;5034003;28;20527;-49
2023/07/03 03:24:45;;;;;;;17.02;10.45;;;19.10;48.60;;;20.38;39.32;97305.25;5032735;28;20448;-50
2023/07/03 03:27:12;;;;;;;13.73;8.90;;;19.00;48.50;;;20.39;39.67;97313.13;5032386;28;20057;-50
2023/07/03 03:29:42;;;;;;;17.23;9.48;;;19.10;48.60;;;20.38;39.79;97303.38;5033969;28;20057;-48
2023/07/03 03:32:10;;;;;;;13.90;9.10;;;19.10;48.70;;;20.38;39.56;97300.66;5033035;28;20513;-49
2023/07/03 03:34:37;;;;;;;17.40;9.15;;;19.10;49.10;;;20.42;40.00;97301.84;5016048;28;20045;-49
2023/07/03 03:37:06;;;;;;;17.77;9.40;;;19.10;49.00;;;20.44;39.72;97297.03;5033556;28;20045;-50
2023/07/03 03:39:34;;;;;;;15.13;8.95;;;19.10;49.10;;;20.48;39.55;97307.41;5033429;28;20046;-50
2023/07/03 03:42:03;;;;;;;16.05;8.63;;;19.10;49.00;;;20.50;39.96;97302.56;5032474;28;20045;-50
2023/07/03 03:44:30;;;;;;;16.85;10.82;;;19.10;49.10;;;20.51;39.89;97304.19;5033417;28;20045;-49
2023/07/03 03:46:58;;;;;;;15.30;8.43;;;19.10;49.00;;;20.52;39.51;97312.09;5040239;28;20046;-47
2023/07/03 03:49:27;;;;;;;17.20;7.95;;;19.10;49.10;;;20.52;39.92;97305.88;5031691;28;20393;-48
2023/07/03 03:51:56;;;;;;;12.90;8.38;;;19.10;49.30;;;20.50;40.08;97313.38;5024914;28;20056;-49
2023/07/03 03:54:26;;;;;;;14.82;9.27;;;19.10;49.30;;;20.49;39.94;97315.28;5033787;28;20425;-48
2023/07/03 03:56:54;;;;;;;13.00;8.65;;;19.10;49.30;;;20.51;39.91;97317.72;5033523;28;20042;-48
2023/07/03 03:59:22;;;;;;;14.45;8.35;;;19.10;49.40;;;20.52;39.94;97313.97;5031696;28;20084;-50
2023/07/03 04:01:50;;;;;;;15.80;9.57;;;19.10;49.70;;;20.51;39.87;97312.31;5030220;28;20049;-48
2023/07/03 04:04:18;;;;;;;15.65;9.80;;;19.00;49.60;;;20.50;40.07;97314.19;5030988;28;20057;-47
2023/07/03 04:06:45;;;;;;;15.57;8.32;;;19.10;49.70;;;20.52;39.93;97316.69;5031375;28;20053;-46
2023/07/03 04:09:13;;;;;;;16.17;9.10;;;19.10;49.60;;;20.50;40.59;97316.91;5032647;28;20416;-46
2023/07/03 04:11:41;;;;;;;14.35;7.93;;;19.10;49.70;;;20.51;40.44;97315.03;5033064;28;20041;-48
2023/07/03 04:14:08;;;;;;;17.80;9.60;;;19.20;49.60;;;20.51;40.14;97317.72;5033700;28;20052;-49
2023/07/03 04:16:36;;;;;;;16.13;8.68;;;19.10;49.90;;;20.50;40.38;97326.91;5032693;28;20405;-50
2023/07/03 04:19:05;;;;;;;14.40;8.82;;;19.10;50.10;;;20.52;40.30;97330.19;5031576;28;20049;-47
2023/07/03 04:21:32;;;;;;;12.18;8.10;;;19.10;50.20;;;20.50;40.50;97321.50;5032746;28;20045;-48
2023/07/03 04:24:00;;;;;;;15.18;9.35;;;19.10;50.40;;;20.51;40.60;97320.44;5033028;28;20389;-53
2023/07/03 04:26:27;;;;;;;19.00;9.80;;;19.10;50.50;;;20.52;40.78;97325.59;5032612;28;20432;-52
2023/07/03 04:28:55;;;;;;;14.27;8.48;;;19.10;50.60;;;20.52;40.90;97322.91;5032142;28;20045;-50
2023/07/03 04:31:22;;;;;;;14.20;8.70;;;19.00;50.60;;;20.55;40.64;97332.41;5033008;28;20045;-50
2023/07/03 04:33:50;;;;;;;17.48;8.60;;;19.00;50.80;;;20.54;40.69;97330.78;5032270;28;20409;-49
2023/07/03 04:36:20;;;;;;;13.82;8.52;;;19.00;50.90;;;20.54;40.83;97334.31;5032375;28;20056;-49
2023/07/03 04:38:48;;;;;;;17.15;8.60;;;19.10;51.00;;;20.54;41.01;97342.41;5032269;28;20061;-53
2023/07/03 04:41:17;;;;;;;18.73;9.35;;;19.10;50.90;;;20.55;40.90;97343.25;5032336;28;20444;-47
2023/07/03 04:43:48;;;;;;;16.17;8.23;;;19.10;51.20;;;20.58;41.13;97348.19;5032557;28;20057;-46
2023/07/03 04:46:15;;;;;;;13.05;7.85;;;19.10;50.90;;;20.57;40.72;97341.97;5032237;28;20052;-46
2023/07/03 04:48:43;;;;;;;12.20;7.25;;;19.10;50.90;;;20.58;40.82;97351.72;5030648;28;20054;-48
2023/07/03 04:51:11;;;;;;;14.05;8.63;;;19.20;50.90;;;20.61;40.87;97356.69;5031628;28;20045;-47
2023/07/03 04:53:40;;;;;;;11.43;8.85;;;19.20;50.90;;;20.61;41.22;97358.59;5032362;28;20049;-50
2023/07/03 04:56:09;;;;;;;13.77;8.18;;;19.20;51.00;;;20.61;40.97;97353.19;5032030;28;20048;-50
2023/07/03 04:58:39;;;;;;;18.35;9.45;;;19.20;51.10;;;20.60;41.22;97355.03;5032029;28;20041;-50
2023/07/03 05:01:11;;;;;;;15.05;8.18;;;19.10;51.20;;;20.62;41.19;97361.03;5030903;28;20056;-47
2023/07/03 05:03:39;;;;;;;13.98;8.48;;;19.20;51.20;;;20.63;40.91;97357.28;5032040;28;20041;-51
2023/07/03 05:06:07;;;;;;;14.02;8.70;;;19.20;51.10;;;20.63;40.86;97361.88;5031184;28;20046;-47
2023/07/03 05:08:35;;;;;;;13.35;7.97;;;19.20;51.00;;;20.64;41.10;97352.69;5031938;28;20048;-47
2023/07/03 05:11:02;;;;;;;14.27;7.82;;;19.20;50.90;;;20.69;41.20;97355.53;5032256;28;20041;-46
2023/07/03 05:13:30;;;;;;;13.05;8.27;;;19.20;51.00;;;20.71;40.90;97356.13;5031956;28;20052;-48
2023/07/03 05:15:58;;;;;;;12.02;7.65;;;19.20;50.80;;;20.71;40.92;97361.53;5032021;28;20052;-46
2023/07/03 05:18:26;;;;;;;16.55;9.20;;;19.20;50.90;;;20.74;41.11;97363.75;5031686;28;20531;-47
2023/07/03 05:20:54;;;;;;;18.00;8.30;;;19.20;51.70;;;20.76;40.73;97364.38;5031410;28;20053;-46
2023/07/03 05:23:21;;;;;;;14.05;8.18;;;19.30;50.80;;;20.79;40.74;97363.91;5031955;28;20424;-47
2023/07/03 05:25:50;;;;;;;16.85;9.07;;;19.30;50.80;;;20.83;40.87;97364.25;5031571;28;20045;-46
2023/07/03 05:28:18;;;;;;;16.08;8.63;;;19.40;50.80;;;20.88;40.69;97360.84;5031322;28;20041;-46
2023/07/03 05:30:59;;;;;;;15.60;8.43;;;19.40;50.80;;;20.91;40.86;97369.31;5031342;28;20265;-46
2023/07/03 05:33:27;;;;;;;13.43;7.70;;;19.50;51.20;;;20.95;40.54;97369.69;5031538;28;20053;-50
2023/07/03 05:36:00;;;;;;;14.45;8.52;;;19.50;50.70;;;20.97;40.61;97373.78;5031078;28;20497;-49
2023/07/03 05:38:28;;;;;;;19.15;8.07;;;19.50;50.70;;;21.02;40.84;97364.97;5029762;28;20061;-48
2023/07/03 05:40:56;;;;;;;16.63;7.68;;;19.50;50.60;;;21.07;40.29;97367.78;5030166;28;20045;-48
2023/07/03 05:43:25;;;;;;;14.25;7.70;;;19.60;50.30;;;21.11;40.46;97374.41;5031341;28;20049;-47
2023/07/03 05:45:53;;;;;;;15.23;8.05;;;19.70;50.30;;;21.16;40.41;97369.09;5029935;28;20284;-50
2023/07/03 05:48:21;;;;;;;13.90;8.88;;;19.70;50.30;;;21.19;40.32;97376.75;5031258;28;20049;-50
2023/07/03 05:50:49;;;;;;;16.50;7.70;;;19.70;50.40;;;21.22;40.86;97376.25;5030835;28;20045;-53
2023/07/03 05:53:18;;;;;;;14.07;7.82;;;19.80;50.20;;;21.26;40.37;97373.91;5031598;28;20057;-50
2023/07/03 05:55:57;;;;;;;12.98;8.25;;;19.80;50.00;;;21.23;40.16;97374.41;5031708;28;20041;-52
2023/07/03 05:58:26;;;;;;;14.48;8.10;;;19.80;49.70;;;21.26;40.37;97382.03;5031131;28;20050;-49
2023/07/03 06:00:54;;;;;;;12.65;7.30;;;19.80;50.00;;;21.31;40.27;97384.84;5031597;28;20068;-49
2023/07/03 06:03:24;;;;;;;13.68;7.32;;;19.90;50.10;;;21.35;40.24;97383.31;5034346;28;20450;-52
2023/07/03 06:05:52;;;;;;;12.75;6.82;;;19.90;49.90;;;21.33;40.48;97382.75;5034574;28;20045;-52
2023/07/03 06:08:21;;;;;;;12.88;7.22;;;19.90;49.80;;;21.34;40.33;97387.06;5034966;28;20041;-50
2023/07/03 06:10:49;;;;;;;13.18;7.93;;;19.90;49.60;;;21.31;40.44;97384.03;5035158;28;20042;-47
2023/07/03 06:13:17;;;;;;;13.07;6.55;;;19.90;49.90;;;21.33;40.63;97396.28;5035345;28;20420;-49
2023/07/03 06:15:44;;;;;;;14.85;7.18;;;20.00;49.70;;;;;;5034956;28;20038;-50
2023/07/03 06:18:12;;;;;;;14.77;7.75;;;20.00;49.60;;;21.41;40.34;97393.19;5035225;28;20057;-49
2023/07/03 06:20:39;;;;;;;13.60;8.32;;;20.00;49.40;;;21.42;40.20;97397.56;5035246;28;20257;-51
2023/07/03 06:23:07;;;;;;;15.40;6.97;;;20.10;49.40;;;21.43;40.24;97403.81;5035039;28;20056;-48
2023/07/03 06:25:35;;;;;;;14.95;7.50;;;20.10;49.30;;;21.42;40.02;97410.25;5034833;28;20049;-50
2023/07/03 06:28:03;;;;;;;13.75;8.27;;;20.10;49.20;;;21.45;40.32;97404.41;5034584;28;20424;-49
2023/07/03 06:30:31;;;;;;;12.35;7.68;;;20.10;49.30;;;21.48;40.08;97413.94;5034726;28;20064;-53
2023/07/03 06:32:58;;;;;;;15.73;8.20;;;20.10;49.40;;;21.41;40.21;97420.28;5035002;28;20045;-49
2023/07/03 06:35:26;;;;;;;11.50;7.53;;;20.10;49.50;;;21.40;40.13;97415.09;5033357;28;20512;-52
2023/07/03 06:37:57;;;;;;;12.70;7.45;;;20.00;49.50;;;21.42;40.70;97419.22;5034272;28;20049;-50
2023/07/03 06:40:25;;;;;;;15.23;7.65;;;20.00;49.70;;;21.28;40.91;97427.81;5033322;28;20515;-48
2023/07/03 06:42:53;;;;;;;14.48;7.57;;;19.90;50.40;;;21.26;40.66;97422.63;5034594;28;20057;-50
2023/07/03 06:45:20;;;;;;;12.30;7.53;;;19.90;50.30;;;21.27;40.91;97424.28;5033449;28;20401;-49
2023/07/03 06:47:48;;;;;;;12.25;7.40;;;20.00;50.50;;;21.35;41.29;97426.66;5034180;28;20049;-52
2023/07/03 06:50:16;;;;;;;12.07;7.80;;;20.00;50.70;;;21.27;41.32;97432.41;5034191;28;20050;-49
2023/07/03 06:52:47;;;;;;;12.85;8.45;;;20.00;51.00;;;21.27;41.48;97435.13;5034712;28;20052;-48
2023/07/03 06:55:14;;;;;;;10.68;7.18;;;19.90;50.90;;;21.31;41.46;97433.59;5034539;28;20501;-50
2023/07/03 06:57:42;;;;;;;13.32;7.05;;;20.00;51.00;;;21.34;41.56;97432.28;5032943;28;20045;-50
2023/07/03 07:00:10;;;;;;;13.63;7.22;;;20.00;51.10;;;21.31;41.43;97430.88;5032958;28;20049;-51
2023/07/03 07:02:38;;;;;;;11.25;6.75;;;20.00;51.10;;;;;;5032939;28;20056;-47
2023/07/03 07:05:06;;;;;;;13.95;7.88;;;20.10;51.20;;;21.38;41.82;97433.47;5031782;28;20060;-50
2023/07/03 07:07:33;;;;;;;16.10;9.05;;;20.10;51.20;;;21.40;41.58;97437.59;5033833;28;20501;-48
2023/07/03 07:10:01;;;;;;;13.20;7.70;;;20.20;51.40;;;21.47;41.96;97437.50;5032272;28;20049;-51
2023/07/03 07:12:29;;;;;;;12.40;7.70;;;20.30;51.10;;;21.41;41.61;97420.28;5034131;28;20045;-48
2023/07/03 07:14:56;;;;;;;13.13;8.02;;;20.20;51.10;;;21.40;41.87;97432.19;5033726;28;20511;-48
2023/07/03 07:17:24;;;;;;;19.08;9.73;;;20.20;51.40;;;21.29;42.25;97435.72;5032778;28;20033;-51
2023/07/03 07:20:08;;;;;;;14.43;7.38;;;20.10;51.50;;;21.29;42.04;97434.91;5033608;28;20045;-53
2023/07/03 07:22:36;;;;;;;11.18;7.05;;;20.00;51.40;;;21.29;42.30;97435.72;5034021;28;20489;-52
2023/07/03 07:25:04;;;;;;;14.50;8.05;;;20.00;51.90;;;21.37;42.05;97442.66;5033721;28;20038;-47
2023/07/03 07:27:32;;;;;;;14.20;7.82;;;20.20;51.90;;;21.37;42.46;97439.94;5033765;28;20057;-53
2023/07/03 07:29:59;;;;;;;17.75;8.07;;;20.20;51.80;;;21.41;42.50;97446.53;5033515;28;20045;-52
2023/07/03 07:32:27;;;;;;;16.23;7.93;;;20.20;51.90;;;21.29;42.55;97453.84;5033580;28;20042;-53
2023/07/03 07:34:54;;;;;;;13.02;6.78;;;20.10;52.40;;;21.22;42.88;97441.22;5033284;28;20057;-50
2023/07/03 07:37:22;;;;;;;18.77;8.75;;;20.00;52.80;;;21.24;42.86;97447.22;5033533;28;20041;-53
2023/07/03 07:39:50;;;;;;;15.55;9.07;;;20.00;53.00;;;21.25;43.09;97456.19;5033436;28;20064;-50
2023/07/03 07:42:17;;;;;;;14.65;9.07;;;20.00;53.30;;;21.21;43.29;97444.19;5033548;28;20068;-52
2023/07/03 07:44:48;;;;;;;16.08;7.93;;;20.00;53.10;;;21.31;43.08;97446.31;5033737;28;20277;-45
2023/07/03 07:47:16;;;;;;;13.77;7.95;;;20.00;53.20;;;21.16;43.54;97453.00;5033483;28;20045;-47
2023/07/03 07:49:44;;;;;;;16.92;7.85;;;20.00;53.70;;;21.24;43.55;97457.25;5033081;28;20056;-46
2023/07/03 07:52:12;;;;;;;15.18;7.85;;;20.00;54.10;;;21.35;42.86;97448.31;5033293;28;20068;-48
2023/07/03 07:54:39;;;;;;;13.57;7.50;;;20.00;53.20;;;21.33;42.60;97461.25;5032878;28;20046;-49
2023/07/03 07:57:07;;;;;;;14.05;7.65;;;20.00;52.30;;;21.27;42.63;97451.38;5014339;28;20046;-47
2023/07/03 07:59:35;;;;;;;15.90;7.78;;;20.00;52.90;;;21.19;42.94;97462.53;5026990;28;20053;-44
2023/07/03 08:02:03;;;;;;;12.27;7.70;;;20.00;52.10;;;21.09;42.79;97460.38;5028403;28;20075;-46
2023/07/03 08:04:32;;;;;;;13.98;7.22;;;19.80;52.60;;;21.21;42.34;97452.31;5043325;28;20045;-44
2023/07/03 08:07:00;;;;;;;14.45;7.07;;;19.90;52.60;;;21.41;42.56;97465.50;5027174;28;20048;-44
2023/07/03 08:09:28;;;;;;;14.38;6.97;;;20.10;51.80;;;21.24;42.45;97460.75;5027659;28;20037;-45
2023/07/03 08:11:55;;;;;;;10.38;6.47;;;19.90;51.90;;;21.07;42.04;97459.81;5043370;28;20057;-45
2023/07/03 08:14:23;;;;;;;14.57;6.78;;;19.70;52.10;;;21.16;42.32;97460.28;5027363;28;20045;-45
2023/07/03 08:16:50;;;;;;;11.48;6.28;;;19.80;52.40;;;21.27;41.93;97459.50;5028169;28;20057;-45
2023/07/03 08:19:18;;;;;;;11.65;6.00;;;19.80;52.00;;;21.03;42.33;97469.44;5027248;28;20056;-45
2023/07/03 08:21:46;;;;;;;14.95;6.60;;;19.80;51.70;;;21.09;41.68;97465.81;5028581;28;20048;-47
2023/07/03 08:24:13;;;;;;;12.70;7.25;;;19.80;51.20;;;21.14;42.22;97462.41;5027846;28;20045;-45
2023/07/03 08:26:44;;;;;;;11.07;7.05;;;19.80;51.80;;;21.22;41.79;97471.00;5026101;28;20045;-46
2023/07/03 08:29:12;;;;;;;12.38;7.05;;;19.90;51.40;;;21.22;41.64;97462.88;5025069;28;20049;-44
2023/07/03 08:31:39;;;;;;;14.70;7.32;;;19.90;50.90;;;21.31;41.49;97459.84;5027907;28;20053;-54
2023/07/03 08:34:10;;;;;;;13.18;6.82;;;20.00;51.00;;;21.27;41.12;97458.66;5040663;28;20045;-52
2023/07/03 08:36:38;;;;;;;14.07;7.40;;;20.00;51.70;;;21.16;41.34;97461.13;5028086;28;20045;-55
2023/07/03 08:39:08;;;;;;;13.93;6.10;;;19.90;50.70;;;21.11;41.58;97466.41;5027235;28;20049;-51
2023/07/03 08:42:05;;;;;;;12.10;6.68;;;19.90;50.60;;;21.22;41.88;97470.19;5027423;28;20567;-54
2023/07/03 08:44:33;;;;;;;11.65;6.30;;;20.00;50.90;;;21.19;41.45;97460.66;5012274;28;20495;-53
2023/07/03 08:47:03;;;;;;;14.23;6.80;;;20.00;50.40;;;20.98;41.87;97450.41;5027307;28;20053;-55
2023/07/03 08:49:41;;;;;;;12.18;5.90;;;20.00;50.40;;;21.32;41.70;97464.19;5025853;28;20044;-53
2023/07/03 08:52:08;;;;;;;12.43;6.45;;;20.20;50.40;;;21.20;40.92;97462.28;5026080;28;20048;-52
2023/07/03 08:54:40;;;;;;;15.55;6.68;;;20.10;49.60;;;21.28;41.26;97461.13;5024007;28;20049;-52
2023/07/03 08:57:10;;;;;;;11.20;6.00;;;20.20;49.70;;;21.24;40.91;97455.34;5024473;28;20050;-53
2023/07/03 08:59:38;;;;;;;12.55;5.80;;;20.20;49.10;;;21.42;40.42;97457.16;5023462;28;20409;-53
2023/07/03 09:02:11;;;;;;;11.60;5.68;;;20.40;48.70;;;21.49;40.40;97453.53;5027690;28;20053;-54
2023/07/03 09:05:15;;;;;;;14.73;6.40;;;20.40;48.50;;;21.38;40.62;97455.97;5026124;28;20056;-55
2023/07/03 09:08:05;;;;;;;15.23;6.32;;;20.40;48.30;;;21.60;40.14;97450.81;5024222;28;20446;-53
2023/07/03 09:10:47;;;;;;;16.40;6.68;;;20.50;47.70;;;21.57;40.00;97447.75;5025935;28;20052;-54
2023/07/03 09:13:17;;;;;;;7.88;5.20;;;20.50;47.90;;;21.59;39.88;97446.44;5026115;28;20060;-55
2023/07/03 09:16:18;;;;;;;13.80;6.63;;;20.50;47.40;;;21.53;39.13;97452.81;5026903;28;20046;-52
2023/07/03 09:18:59;;;;;;;12.10;6.25;;;20.60;46.10;;;21.69;39.04;97448.53;5025219;28;20497;-54
2023/07/03 09:21:29;;;;;;;10.27;5.20;;;20.60;45.50;;;21.80;38.48;97455.03;5025016;28;20393;-54
2023/07/03 09:24:26;;;;;;;8.85;4.95;;;20.70;45.40;;;21.93;38.60;97446.63;5024505;28;20057;-52
2023/07/03 09:27:07;;;;;;;9.95;5.50;;;21.00;44.90;;;22.03;37.34;97438.72;5024510;28;20056;-53
2023/07/03 09:29:37;;;;;;;10.90;5.20;;;21.20;43.60;;;22.12;37.95;97439.16;5025374;28;20451;-54
2023/07/03 09:32:05;;;;;;;10.50;4.45;;;21.40;44.10;;;22.17;37.01;97449.28;5025564;28;20041;-54
2023/07/03 09:35:15;;;;;;;8.02;5.00;;;21.60;42.20;;;22.20;35.88;97448.81;5023279;28;20046;-54
2023/07/03 09:37:47;;;;;;;7.15;4.13;;;21.50;40.90;;;22.21;36.65;97442.31;4986179;28;20522;-55
2023/07/03 09:40:27;;;;;;;10.23;4.88;;;21.50;41.50;;;22.33;35.45;97467.56;4986068;28;20158;-53
2023/07/03 09:42:56;;;;;;;11.15;5.20;;;21.50;41.10;;;22.44;35.98;97443.34;5018333;28;20049;-55
2023/07/03 09:45:34;;;;;;;6.07;5.13;;;21.60;41.50;;;22.64;35.29;97446.41;5038838;28;20045;-55
2023/07/03 09:48:15;;;;;;;8.52;4.20;;;21.70;40.30;;;22.80;35.38;97455.66;5024780;28;20424;-55
2023/07/03 09:50:44;;;;;;;5.70;3.60;;;21.90;40.60;;;22.89;35.20;97447.94;5023104;28;20038;-57
2023/07/03 09:53:32;;;;;;;9.10;4.97;;;22.00;40.10;;;22.89;34.75;97454.19;5024593;28;20527;-55
2023/07/03 09:56:03;;;;;;;7.35;4.47;;;21.90;40.00;;;22.80;35.38;97456.47;5035963;28;20049;-57
2023/07/03 09:58:30;;;;;;;7.65;4.50;;;21.80;41.00;;;22.90;35.95;97465.88;5021894;28;20496;-55
2023/07/03 10:01:00;;;;;;;10.82;6.60;;;21.90;41.90;;;22.92;35.13;97464.56;5022714;28;20049;-56
2023/07/03 10:03:35;;;;;;;8.77;4.38;;;21.90;40.60;;;22.94;35.35;97458.88;5024039;28;20312;-57
2023/07/03 10:06:17;;;;;;;10.00;4.90;;;21.90;41.50;;;23.06;35.39;97462.38;5022421;28;20040;-54
2023/07/03 10:08:51;;;;;;;9.90;5.57;;;22.10;41.50;;;23.07;35.39;97466.75;5024142;28;20041;-55
2023/07/03 10:11:41;;;;;;;10.48;4.32;;;22.10;41.30;;;23.07;36.01;97472.19;5026089;28;20041;-55
2023/07/03 10:14:17;;;;;;;9.00;5.03;;;22.10;41.90;;;23.10;36.00;97468.13;5022073;28;20049;-56
2023/07/03 10:16:46;;;;;;;11.25;4.60;;;22.10;42.20;;;23.26;35.61;97461.06;5023129;28;20419;-53
2023/07/03 10:19:15;;;;;;;7.57;4.05;;;22.20;42.00;;;23.14;35.35;97467.38;5021114;28;20421;-56
2023/07/03 10:21:44;;;;;;;11.23;5.13;;;22.20;40.90;;;23.26;35.46;97461.06;5024650;28;20048;-56
2023/07/03 10:24:12;;;;;;;6.88;4.70;;;22.20;41.40;;;23.29;35.25;97474.16;5023619;28;20053;-54
2023/07/03 10:26:50;;;;;;;11.55;4.72;;;22.20;41.40;;;22.93;35.67;97482.47;5025502;28;20496;-56